createdAt,value
2023-04-18T00:00:22.622Z,98704.41
2023-04-18T00:02:51.445Z,98704.97
2023-04-18T00:05:19.300Z,98709.78
2023-04-18T00:07:47.197Z,98708.19
2023-04-18T00:10:15.039Z,98700.09
2023-04-18T00:12:42.935Z,98697.19
2023-04-18T00:15:12.325Z,98703.53
2023-04-18T00:17:41.415Z,98689.13
2023-04-18T00:20:10.715Z,98696.97
2023-04-18T00:22:42.734Z,98692.78
2023-04-18T00:25:11.650Z,98688.97
2023-04-18T00:27:39.919Z,98686.25
2023-04-18T00:30:09.221Z,98689.38
2023-04-18T00:32:36.938Z,98686.97
2023-04-18T00:35:07.652Z,98683.47
2023-04-18T00:37:40.178Z,98683.31
2023-04-18T00:40:08.860Z,98685.22
2023-04-18T00:42:37.388Z,98683.16
2023-04-18T00:45:05.889Z,98682.34
2023-04-18T00:47:33.843Z,98686.13
2023-04-18T00:50:01.639Z,98680.81
2023-04-18T00:52:31.890Z,98683.53
2023-04-18T00:54:59.636Z,98679.69
2023-04-18T00:57:27.373Z,98679.09
2023-04-18T00:59:56.152Z,98674.25
2023-04-18T01:02:26.210Z,98684.44
2023-04-18T01:04:54.929Z,98680.69
2023-04-18T01:07:22.765Z,98672.69
2023-04-18T01:09:52.459Z,98684.94
2023-04-18T01:12:20.151Z,98675.00
2023-04-18T01:14:47.799Z,98663.66
2023-04-18T01:17:16.278Z,98661.25
2023-04-18T01:19:44.440Z,98663.75
2023-04-18T01:22:14.888Z,98666.16
2023-04-18T01:24:43.876Z,98668.16
2023-04-18T01:27:13.262Z,98663.56
2023-04-18T01:29:41.332Z,98659.13
2023-04-18T01:32:09.016Z,98660.34
2023-04-18T01:34:36.675Z,98661.50
2023-04-18T01:37:04.293Z,98669.16
2023-04-18T01:39:32.052Z,98658.78
2023-04-18T01:42:02.082Z,98665.16
2023-04-18T01:44:29.788Z,98655.56
2023-04-18T01:46:57.445Z,98661.31
2023-04-18T01:49:25.119Z,98657.34
2023-04-18T01:51:52.853Z,98656.38
2023-04-18T01:54:20.485Z,98659.41
2023-04-18T01:56:48.132Z,98660.00
2023-04-18T01:59:17.118Z,98655.56
2023-04-18T02:01:44.812Z,98652.38
2023-04-18T02:04:13.161Z,98653.59
2023-04-18T02:06:41.107Z,98655.19
2023-04-18T02:09:08.770Z,98640.88
2023-04-18T02:11:36.423Z,98642.50
2023-04-18T02:14:04.082Z,98652.09
2023-04-18T02:16:34.002Z,98644.44
2023-04-18T02:19:04.306Z,98643.44
2023-04-18T02:21:31.978Z,98643.31
2023-04-18T02:23:59.582Z,98649.84
2023-04-18T02:26:27.222Z,98647.13
2023-04-18T02:28:54.839Z,98645.06
2023-04-18T02:31:22.603Z,98642.84
2023-04-18T02:33:51.703Z,98654.50
2023-04-18T02:36:19.353Z,98645.56
2023-04-18T02:38:46.969Z,98643.94
2023-04-18T02:41:18.044Z,98652.28
2023-04-18T02:43:45.764Z,98651.66
2023-04-18T02:46:13.520Z,98646.03
2023-04-18T02:48:41.444Z,98652.94
2023-04-18T02:51:10.764Z,98661.91
2023-04-18T02:53:38.422Z,98656.91
2023-04-18T02:56:06.764Z,98646.41
2023-04-18T02:58:36.347Z,98657.41
2023-04-18T03:01:04.080Z,98660.81
2023-04-18T03:03:31.782Z,98657.00
2023-04-18T03:06:00.188Z,98656.00
2023-04-18T03:08:29.355Z,98657.28
2023-04-18T03:10:56.959Z,98654.50
2023-04-18T03:13:24.643Z,98652.28
2023-04-18T03:15:52.500Z,98657.53
2023-04-18T03:18:20.720Z,98661.72
2023-04-18T03:20:48.330Z,98650.66
2023-04-18T03:23:16.039Z,98655.91
2023-04-18T03:25:45.083Z,98655.91
2023-04-18T03:28:12.931Z,98650.66
2023-04-18T03:30:40.728Z,98652.16
2023-04-18T03:33:08.614Z,98652.78
2023-04-18T03:35:36.310Z,98653.44
2023-04-18T03:38:03.902Z,98658.22
2023-04-18T03:40:31.533Z,98651.84
2023-04-18T03:43:00.825Z,98659.03
2023-04-18T03:45:28.690Z,98652.00
2023-04-18T03:47:56.508Z,98655.88
2023-04-18T03:50:25.683Z,98650.66
2023-04-18T03:52:53.374Z,98651.84
2023-04-18T03:55:21.798Z,98650.44
2023-04-18T03:57:49.428Z,98651.84
2023-04-18T04:00:19.059Z,98650.56
2023-04-18T04:02:46.956Z,98647.72
2023-04-18T04:05:14.712Z,98649.34
2023-04-18T04:07:42.424Z,98654.09
2023-04-18T04:10:10.667Z,98655.47
2023-04-18T04:12:38.248Z,98658.22
2023-04-18T04:15:07.040Z,98661.44
2023-04-18T04:17:36.133Z,98667.47
2023-04-18T04:20:04.422Z,98662.25
2023-04-18T04:22:32.708Z,98663.09
2023-04-18T04:25:00.785Z,98668.69
2023-04-18T04:27:28.405Z,98675.94
2023-04-18T04:29:56.621Z,98687.44
2023-04-18T04:32:25.184Z,98682.00
2023-04-18T04:34:56.219Z,98689.84
2023-04-18T04:37:23.878Z,98681.38
2023-04-18T04:39:52.376Z,98694.97
2023-04-18T04:42:20.162Z,98680.47
2023-04-18T04:44:47.856Z,98687.69
2023-04-18T04:47:15.591Z,98693.56
2023-04-18T04:49:43.268Z,98689.38
2023-04-18T04:52:12.298Z,98689.09
2023-04-18T04:54:40.008Z,98687.84
2023-04-18T04:57:07.634Z,98686.25
2023-04-18T04:59:35.583Z,98687.06
2023-04-18T05:02:03.473Z,98693.31
2023-04-18T05:04:31.265Z,98688.06
2023-04-18T05:06:59.140Z,98690.47
2023-04-18T05:09:28.173Z,98690.16
2023-04-18T05:11:55.783Z,98695.28
2023-04-18T05:14:23.942Z,98688.59
2023-04-18T05:16:51.668Z,98702.34
2023-04-18T05:19:19.300Z,98703.44
2023-04-18T05:21:46.921Z,98703.97
2023-04-18T05:24:14.748Z,98704.59
2023-04-18T05:26:44.168Z,98695.78
2023-04-18T05:29:11.901Z,98707.16
2023-04-18T05:31:39.542Z,98697.25
2023-04-18T05:34:07.230Z,98709.44
2023-04-18T05:36:35.176Z,98707.47
2023-04-18T05:39:02.825Z,98698.69
2023-04-18T05:41:30.501Z,98713.59
2023-04-18T05:44:05.466Z,98715.81
2023-04-18T05:46:33.706Z,98706.53
2023-04-18T05:49:01.443Z,98709.69
2023-04-18T05:51:29.436Z,98709.88
2023-04-18T05:53:57.056Z,98715.00
2023-04-18T05:56:24.790Z,98712.63
2023-04-18T05:58:52.536Z,98708.31
2023-04-18T06:01:21.625Z,98720.47
2023-04-18T06:03:52.222Z,98719.56
2023-04-18T06:06:20.130Z,98721.44
2023-04-18T06:08:47.842Z,98727.72
2023-04-18T06:11:15.968Z,98722.28
2023-04-18T06:13:44.101Z,98725.66
2023-04-18T06:16:11.960Z,98719.41
2023-04-18T06:18:41.059Z,98726.13
2023-04-18T06:21:08.735Z,98727.72
2023-04-18T06:23:36.998Z,98727.09
2023-04-18T06:26:04.773Z,98730.28
2023-04-18T06:28:32.422Z,98728.53
2023-04-18T06:31:00.136Z,98727.72
2023-04-18T06:33:27.756Z,98727.41
2023-04-18T06:35:56.977Z,98716.44
2023-04-18T06:38:24.718Z,98735.94
2023-04-18T06:40:52.382Z,98738.84
2023-04-18T06:43:21.953Z,98738.25
2023-04-18T06:45:49.680Z,98734.69
2023-04-18T06:48:17.429Z,98727.78
2023-04-18T06:50:45.166Z,98740.13
2023-04-18T06:53:14.207Z,98742.41
2023-04-18T06:55:41.958Z,98739.16
2023-04-18T06:58:10.164Z,98734.38
2023-04-18T07:00:37.943Z,98743.81
2023-04-18T07:03:11.441Z,98742.88
2023-04-18T07:05:39.862Z,98745.22
2023-04-18T07:08:07.968Z,98749.63
2023-04-18T07:10:37.071Z,98743.00
2023-04-18T07:13:04.753Z,98743.41
2023-04-18T07:15:32.483Z,98748.88
2023-04-18T07:18:00.197Z,98745.25
2023-04-18T07:20:27.909Z,98743.91
2023-04-18T07:22:55.580Z,98747.94
2023-04-18T07:25:23.330Z,98748.56
2023-04-18T07:27:52.326Z,98754.13
2023-04-18T07:30:20.150Z,98757.56
2023-04-18T07:32:48.329Z,98750.31
2023-04-18T07:35:16.499Z,98754.44
2023-04-18T07:37:44.218Z,98748.59
2023-04-18T07:40:12.853Z,98748.22
2023-04-18T07:42:40.630Z,98757.81
2023-04-18T07:45:10.505Z,98751.28
2023-04-18T07:47:38.152Z,98743.69
2023-04-18T07:50:06.548Z,98757.41
2023-04-18T07:52:34.306Z,98755.47
2023-04-18T07:55:02.054Z,98755.38
2023-04-18T07:57:29.738Z,98755.00
2023-04-18T07:59:57.356Z,98757.41
2023-04-18T08:02:26.770Z,98754.09
2023-04-18T08:04:56.198Z,98753.97
2023-04-18T08:07:24.167Z,98755.38
2023-04-18T08:09:51.859Z,98746.34
2023-04-18T08:12:19.575Z,98740.72
2023-04-18T08:14:47.247Z,98747.16
2023-04-18T08:17:14.831Z,98758.34
2023-04-18T08:19:45.025Z,98757.91
2023-04-18T08:22:12.964Z,98765.09
2023-04-18T08:24:44.539Z,98755.22
2023-04-18T08:27:18.942Z,98759.00
2023-04-18T08:29:46.543Z,98751.91
2023-04-18T08:32:14.275Z,98757.47
2023-04-18T08:34:43.459Z,98753.03
2023-04-18T08:37:11.132Z,98753.00
2023-04-18T08:39:38.735Z,98746.63
2023-04-18T08:42:07.451Z,98747.00
2023-04-18T08:44:35.765Z,98742.72
2023-04-18T08:47:03.593Z,98752.22
2023-04-18T08:49:32.051Z,98750.28
2023-04-18T08:52:02.266Z,98762.38
2023-04-18T08:54:31.175Z,98759.16
2023-04-18T08:57:05.952Z,98762.69
2023-04-18T08:59:35.505Z,98764.31
2023-04-18T09:02:04.797Z,98756.34
2023-04-18T09:04:38.424Z,98766.84
2023-04-18T09:07:08.837Z,98760.97
2023-04-18T09:09:47.589Z,98765.50
2023-04-18T09:12:18.300Z,98748.97
2023-04-18T09:14:48.476Z,98758.50
2023-04-18T09:17:31.480Z,98761.81
2023-04-18T09:20:00.593Z,98765.78
2023-04-18T09:22:46.234Z,98752.75
2023-04-18T09:25:25.390Z,98760.09
2023-04-18T09:27:53.308Z,98750.00
2023-04-18T09:30:36.905Z,98746.19
2023-04-18T09:33:07.539Z,98753.69
2023-04-18T09:35:35.854Z,98754.59
2023-04-18T09:38:05.313Z,98745.56
2023-04-18T09:40:33.715Z,98754.16
2023-04-18T09:43:01.683Z,98752.81
2023-04-18T09:45:29.363Z,98749.00
2023-04-18T09:47:57.161Z,98749.69
2023-04-18T09:50:24.815Z,98748.22
2023-04-18T09:52:53.234Z,98753.44
2023-04-18T09:55:22.741Z,98746.16
2023-04-18T09:57:52.289Z,98752.75
2023-04-18T10:00:26.614Z,98747.19
2023-04-18T10:02:58.737Z,98745.13
2023-04-18T10:05:28.394Z,98748.31
2023-04-18T10:07:56.572Z,98746.63
2023-04-18T10:10:26.145Z,98747.28
2023-04-18T10:12:56.409Z,98747.53
2023-04-18T10:15:26.589Z,98742.94
2023-04-18T10:18:04.476Z,98743.84
2023-04-18T10:20:34.678Z,98750.72
2023-04-18T10:23:35.607Z,98747.09
2023-04-18T10:26:05.499Z,98742.47
2023-04-18T10:28:52.977Z,98746.09
2023-04-18T10:31:23.356Z,98739.22
2023-04-18T10:34:03.876Z,98739.19
2023-04-18T10:36:33.377Z,98735.41
2023-04-18T10:39:20.329Z,98731.03
2023-04-18T10:41:51.814Z,98728.53
2023-04-18T10:44:24.162Z,98725.50
2023-04-18T10:47:21.744Z,98724.31
2023-04-18T10:49:58.862Z,98731.44
2023-04-18T10:52:27.720Z,98728.56
2023-04-18T10:55:12.913Z,98726.53
2023-04-18T10:57:44.509Z,98718.81
2023-04-18T11:00:14.670Z,98718.84
2023-04-18T11:02:50.140Z,98722.88
2023-04-18T11:05:23.359Z,98709.47
2023-04-18T11:07:51.410Z,98718.75
2023-04-18T11:10:21.005Z,98706.72
2023-04-18T11:12:50.420Z,98706.72
2023-04-18T11:15:21.673Z,98708.22
2023-04-18T11:17:57.343Z,98705.03
2023-04-18T11:20:25.473Z,98702.50
2023-04-18T11:22:55.335Z,98705.03
2023-04-18T11:25:26.082Z,98699.56
2023-04-18T11:27:55.763Z,98694.09
2023-04-18T11:30:23.589Z,98702.81
2023-04-18T11:32:51.554Z,98699.97
2023-04-18T11:35:19.636Z,98702.25
2023-04-18T11:37:49.860Z,98694.59
2023-04-18T11:40:17.691Z,98694.56
2023-04-18T11:42:45.491Z,98692.16
2023-04-18T11:45:15.649Z,98691.97
2023-04-18T11:47:44.353Z,98695.63
2023-04-18T11:50:13.744Z,98691.09
2023-04-18T11:52:42.882Z,98689.19
2023-04-18T11:55:17.623Z,98700.69
2023-04-18T11:57:52.756Z,98691.41
2023-04-18T12:00:32.828Z,98684.38
2023-04-18T12:03:01.730Z,98690.00
2023-04-18T12:05:31.786Z,98689.34
2023-04-18T12:08:07.600Z,98691.69
2023-04-18T12:10:35.827Z,98697.56
2023-04-18T12:13:07.837Z,98691.47
2023-04-18T12:15:39.850Z,98691.22
2023-04-18T12:18:08.515Z,98693.94
2023-04-18T12:20:38.119Z,98693.94
2023-04-18T12:23:05.884Z,98690.16
2023-04-18T12:25:34.732Z,98680.84
2023-04-18T12:28:04.538Z,98686.69
2023-04-18T12:30:34.600Z,98678.59
2023-04-18T12:33:06.667Z,98677.22
2023-04-18T12:35:34.349Z,98682.44
2023-04-18T12:38:03.619Z,98680.94
2023-04-18T12:40:31.545Z,98681.72
2023-04-18T12:43:00.511Z,98691.34
2023-04-18T12:45:30.395Z,98685.00
2023-04-18T12:47:58.138Z,98688.66
2023-04-18T12:50:27.848Z,98679.94
2023-04-18T12:52:58.110Z,98686.78
2023-04-18T12:55:26.273Z,98682.78
2023-04-18T12:57:55.372Z,98682.00
2023-04-18T13:00:24.370Z,98680.66
2023-04-18T13:02:52.805Z,98684.28
2023-04-18T13:05:22.373Z,98682.22
2023-04-18T13:07:58.718Z,98686.84
2023-04-18T13:10:33.071Z,98677.44
2023-04-18T13:13:00.893Z,98676.53
2023-04-18T13:15:28.588Z,98681.31
2023-04-18T13:17:57.211Z,98682.78
2023-04-18T13:20:25.190Z,98673.56
2023-04-18T13:22:54.217Z,98684.50
2023-04-18T13:25:21.979Z,98680.63
2023-04-18T13:27:50.381Z,98684.97
2023-04-18T13:30:18.019Z,98683.19
2023-04-18T13:32:46.237Z,98682.28
2023-04-18T13:35:13.956Z,98687.41
2023-04-18T13:37:41.577Z,98681.94
2023-04-18T13:40:11.470Z,98685.81
2023-04-18T13:42:39.735Z,98689.22
2023-04-18T13:45:08.170Z,98684.38
2023-04-18T13:47:36.539Z,98687.41
2023-04-18T13:50:04.507Z,98685.66
2023-04-18T13:52:32.100Z,98685.13
2023-04-18T13:54:59.694Z,98686.97
2023-04-18T13:57:31.878Z,98688.38
2023-04-18T13:59:59.533Z,98688.16
2023-04-18T14:02:27.293Z,98685.88
2023-04-18T14:04:55.486Z,98688.16
2023-04-18T14:07:23.321Z,98687.00
2023-04-18T14:09:52.116Z,98692.66
2023-04-18T14:12:21.611Z,98687.69
2023-04-18T14:14:50.572Z,98699.22
2023-04-18T14:17:18.186Z,98689.34
2023-04-18T14:19:46.009Z,98691.69
2023-04-18T14:22:13.627Z,98695.09
2023-04-18T14:24:41.258Z,98705.09
2023-04-18T14:27:09.121Z,98703.31
2023-04-18T14:29:36.802Z,98706.50
2023-04-18T14:32:07.189Z,98705.09
2023-04-18T14:34:36.663Z,98709.47
2023-04-18T14:37:05.247Z,98707.38
2023-04-18T14:39:32.957Z,98709.44
2023-04-18T14:42:01.473Z,98718.31
2023-04-18T14:44:30.539Z,98705.53
2023-04-18T14:46:58.441Z,98707.28
2023-04-18T14:49:27.823Z,98703.97
2023-04-18T14:51:55.964Z,98707.19
2023-04-18T14:54:23.677Z,98706.63
2023-04-18T14:56:51.462Z,98707.63
2023-04-18T14:59:19.319Z,98709.69
2023-04-18T15:01:47.409Z,98714.47
2023-04-18T15:04:15.772Z,98721.31
2023-04-18T15:06:46.638Z,98709.22
2023-04-18T15:09:15.474Z,98711.03
2023-04-18T15:11:43.235Z,98717.22
2023-04-18T15:14:10.946Z,98718.38
2023-04-18T15:16:40.746Z,98708.63
2023-04-18T15:19:09.708Z,98716.47
2023-04-18T15:21:37.662Z,98718.75
2023-04-18T15:24:07.936Z,98717.34
2023-04-18T15:26:36.005Z,98723.88
2023-04-18T15:29:04.100Z,98712.59
2023-04-18T15:31:32.567Z,98715.81
2023-04-18T15:34:00.613Z,98707.59
2023-04-18T15:36:28.764Z,98718.53
2023-04-18T15:38:56.541Z,98714.66
2023-04-18T15:41:25.893Z,98713.06
2023-04-18T15:43:53.983Z,98721.63
2023-04-18T15:46:22.215Z,98716.38
2023-04-18T15:48:49.971Z,98714.00
2023-04-18T15:51:17.827Z,98713.06
2023-04-18T15:53:45.551Z,98715.59
2023-04-18T15:56:13.753Z,98713.06
2023-04-18T15:58:42.851Z,98719.81
2023-04-18T16:01:13.075Z,98712.84
2023-04-18T16:03:40.927Z,98716.69
2023-04-18T16:06:09.867Z,98725.94
2023-04-18T16:08:38.319Z,98729.94
2023-04-18T16:11:06.196Z,98733.34
2023-04-18T16:13:38.283Z,98735.81
2023-04-18T16:16:08.295Z,98747.56
2023-04-18T16:18:36.101Z,98739.03
2023-04-18T16:21:03.762Z,98737.44
2023-04-18T16:23:32.380Z,98744.94
2023-04-18T16:26:00.234Z,98745.59
2023-04-18T16:28:28.057Z,98743.22
2023-04-18T16:30:55.964Z,98742.38
2023-04-18T16:33:26.094Z,98746.72
2023-04-18T16:35:53.992Z,98747.50
2023-04-18T16:38:23.509Z,98750.09
2023-04-18T16:40:51.153Z,98753.06
2023-04-18T16:43:18.812Z,98755.09
2023-04-18T16:45:46.433Z,98761.41
2023-04-18T16:48:14.145Z,98755.13
2023-04-18T16:50:45.507Z,98752.34
2023-04-18T16:53:13.280Z,98753.66
2023-04-18T16:55:42.101Z,98766.81
2023-04-18T16:58:09.814Z,98764.22
2023-04-18T17:00:38.614Z,98767.41
2023-04-18T17:03:07.860Z,98774.19
2023-04-18T17:05:35.782Z,98774.66
2023-04-18T17:08:04.999Z,98775.16
2023-04-18T17:10:32.856Z,98781.50
2023-04-18T17:13:02.919Z,98779.25
2023-04-18T17:15:30.819Z,98777.53
2023-04-18T17:18:00.267Z,98787.66
2023-04-18T17:20:28.320Z,98795.16
2023-04-18T17:22:57.218Z,98787.66
2023-04-18T17:25:26.207Z,98791.72
2023-04-18T17:27:53.960Z,98795.09
2023-04-18T17:30:21.853Z,98792.84
2023-04-18T17:32:51.150Z,98797.00
2023-04-18T17:35:19.008Z,98794.97
2023-04-18T17:37:47.781Z,98792.31
2023-04-18T17:40:15.572Z,98789.75
2023-04-18T17:42:44.765Z,98792.06
2023-04-18T17:45:12.459Z,98791.41
2023-04-18T17:47:40.783Z,98798.56
2023-04-18T17:50:09.377Z,98808.19
2023-04-18T17:52:37.270Z,98797.91
2023-04-18T17:55:05.566Z,98804.97
2023-04-18T17:57:35.249Z,98804.97
2023-04-18T18:00:08.723Z,98819.44
2023-04-18T18:02:36.432Z,98816.44
2023-04-18T18:05:05.270Z,98813.81
2023-04-18T18:07:37.104Z,98817.84
2023-04-18T18:10:06.362Z,98816.91
2023-04-18T18:12:35.801Z,98824.63
2023-04-18T18:15:05.582Z,98817.84
2023-04-18T18:17:33.266Z,98827.34
2023-04-18T18:20:00.897Z,98822.72
2023-04-18T18:22:29.012Z,98830.72
2023-04-18T18:24:57.934Z,98827.53
2023-04-18T18:27:25.702Z,98838.28
2023-04-18T18:29:53.341Z,98840.41
2023-04-18T18:32:22.656Z,98838.13
2023-04-18T18:34:50.359Z,98839.91
2023-04-18T18:37:18.087Z,98843.72
2023-04-18T18:39:45.806Z,98846.13
2023-04-18T18:42:13.495Z,98846.78
2023-04-18T18:44:41.142Z,98845.84
2023-04-18T18:47:08.805Z,98849.50
2023-04-18T18:49:37.790Z,98851.59
2023-04-18T18:52:05.904Z,98851.91
2023-04-18T18:54:33.569Z,98861.22
2023-04-18T18:57:02.548Z,98858.50
2023-04-18T18:59:30.870Z,98858.97
2023-04-18T19:01:58.714Z,98863.94
2023-04-18T19:04:26.585Z,98867.78
2023-04-18T19:06:55.738Z,98865.28
2023-04-18T19:09:23.563Z,98870.25
2023-04-18T19:11:51.457Z,98882.47
2023-04-18T19:14:19.198Z,98877.66
2023-04-18T19:16:46.918Z,98870.09
2023-04-18T19:19:15.633Z,98878.44
2023-04-18T19:21:45.881Z,98877.00
2023-04-18T19:24:14.912Z,98887.91
2023-04-18T19:26:42.727Z,98871.22
2023-04-18T19:29:14.317Z,98887.72
2023-04-18T19:31:43.457Z,98883.41
2023-04-18T19:34:12.023Z,98889.34
2023-04-18T19:36:39.906Z,98886.31
2023-04-18T19:39:07.712Z,98889.69
2023-04-18T19:41:36.789Z,98892.41
2023-04-18T19:44:04.588Z,98892.06
2023-04-18T19:46:32.378Z,98893.38
2023-04-18T19:49:00.417Z,98893.69
2023-04-18T19:51:29.460Z,98896.56
2023-04-18T19:54:00.884Z,98895.00
2023-04-18T19:56:28.683Z,98883.41
2023-04-18T19:58:58.154Z,98890.81
2023-04-18T20:01:28.120Z,98883.41
2023-04-18T20:03:58.811Z,98893.69
2023-04-18T20:06:27.920Z,98893.41
2023-04-18T20:08:56.106Z,98891.13
2023-04-18T20:11:24.431Z,98897.53
2023-04-18T20:13:54.465Z,98888.25
2023-04-18T20:16:24.301Z,98896.13
2023-04-18T20:18:54.663Z,98892.09
2023-04-18T20:21:22.863Z,98892.09
2023-04-18T20:23:51.120Z,98894.66
2023-04-18T20:26:19.389Z,98894.50
2023-04-18T20:28:47.193Z,98891.47
2023-04-18T20:31:15.619Z,98892.44
2023-04-18T20:33:45.035Z,98902.81
2023-04-18T20:36:14.267Z,98891.28
2023-04-18T20:38:42.348Z,98893.22
2023-04-18T20:41:14.181Z,98888.88
2023-04-18T20:43:43.231Z,98893.41
2023-04-18T20:46:13.198Z,98886.47
2023-04-18T20:48:42.137Z,98889.53
2023-04-18T20:51:11.267Z,98884.72
2023-04-18T20:53:39.435Z,98879.59
2023-04-18T20:56:07.625Z,98882.16
2023-04-18T20:58:35.382Z,98883.75
2023-04-18T21:01:03.310Z,98881.69
2023-04-18T21:03:32.107Z,98885.38
2023-04-18T21:06:00.260Z,98881.81
2023-04-18T21:08:31.927Z,98876.06
2023-04-18T21:10:59.649Z,98881.53
2023-04-18T21:13:27.523Z,98879.78
2023-04-18T21:15:57.154Z,98877.34
2023-04-18T21:18:26.523Z,98877.97
2023-04-18T21:20:56.032Z,98876.53
2023-04-18T21:23:24.177Z,98874.13
2023-04-18T21:25:54.566Z,98875.44
2023-04-18T21:28:22.395Z,98879.91
2023-04-18T21:30:51.721Z,98879.28
2023-04-18T21:33:20.358Z,98883.44
2023-04-18T21:35:49.861Z,98880.09
2023-04-18T21:38:17.848Z,98886.16
2023-04-18T21:40:45.911Z,98883.28
2023-04-18T21:43:17.516Z,98886.63
2023-04-18T21:45:48.013Z,98878.94
2023-04-18T21:48:16.114Z,98873.50
2023-04-18T21:50:46.348Z,98870.63
2023-04-18T21:53:14.384Z,98877.34
2023-04-18T21:55:43.587Z,98876.38
2023-04-18T21:58:11.629Z,98874.31
2023-04-18T22:00:40.862Z,98876.72
2023-04-18T22:03:10.648Z,98872.88
2023-04-18T22:05:39.980Z,98871.25
2023-04-18T22:08:08.366Z,98872.22
2023-04-18T22:10:36.550Z,98868.22
2023-04-18T22:13:05.228Z,98873.50
2023-04-18T22:15:33.463Z,98869.03
2023-04-18T22:18:05.669Z,98861.00
2023-04-18T22:20:36.678Z,98861.63
2023-04-18T22:23:07.016Z,98865.19
2023-04-18T22:25:35.113Z,98858.13
2023-04-18T22:28:03.690Z,98857.97
2023-04-18T22:30:31.797Z,98856.69
2023-04-18T22:32:59.818Z,98858.75
2023-04-18T22:35:28.979Z,98853.63
2023-04-18T22:37:57.054Z,98856.19
2023-04-18T22:40:24.692Z,98860.69
2023-04-18T22:42:52.800Z,98863.56
2023-04-18T22:45:20.822Z,98868.06
2023-04-18T22:47:48.581Z,98867.41
2023-04-18T22:50:17.187Z,98878.00
2023-04-18T22:52:46.190Z,98877.34
2023-04-18T22:55:16.376Z,98867.25
2023-04-18T22:57:44.161Z,98863.56
2023-04-18T23:00:14.524Z,98873.84
2023-04-18T23:02:43.700Z,98866.16
2023-04-18T23:05:11.795Z,98863.22
2023-04-18T23:07:39.508Z,98862.75
2023-04-18T23:10:10.460Z,98869.97
2023-04-18T23:12:38.164Z,98861.63
2023-04-18T23:15:06.697Z,98858.41
2023-04-18T23:17:34.918Z,98860.00
2023-04-18T23:20:03.449Z,98867.22
2023-04-18T23:22:31.216Z,98859.69
2023-04-18T23:24:58.967Z,98862.69
2023-04-18T23:27:27.978Z,98855.19
2023-04-18T23:29:55.748Z,98861.28
2023-04-18T23:32:23.881Z,98857.25
2023-04-18T23:34:51.649Z,98850.38
2023-04-18T23:37:21.351Z,98855.28
2023-04-18T23:39:49.414Z,98851.63
2023-04-18T23:42:17.071Z,98851.94
2023-04-18T23:44:46.168Z,98851.63
2023-04-18T23:47:14.246Z,98842.34
2023-04-18T23:49:42.062Z,98847.00
2023-04-18T23:52:09.770Z,98840.75
2023-04-18T23:54:37.424Z,98843.97
2023-04-18T23:57:05.271Z,98841.88
2023-04-18T23:59:32.949Z,98839.63
